Time;durP1;ratioP1;P1;durP2;ratioP2;P2;SDS_P1;SDS_P2;PMS_P1;PMS_P2;Temp;Humidity;BMP_temperature;BMP_pressure;BME280_temperature;BME280_humidity;BME280_pressure;Samples;Min_cycle;Max_cycle;Signal;HPM_P1;HPM_P2
2022/06/04 00:00:08;;;;;;;;;34.75;31.00;;;;;19.28;62.98;100879.03;5118027;27;45437;-63
2022/06/04 00:02:41;;;;;;;;;30.00;22.50;;;;;19.23;63.57;100876.69;5113958;27;45422;-63
2022/06/04 00:05:08;;;;;;;;;38.25;33.00;;;;;19.21;63.12;100883.03;5111435;27;45518;-63
2022/06/04 00:07:33;;;;;;;;;41.00;32.50;;;;;19.19;63.57;100893.72;5100416;27;45484;-63
2022/06/04 00:15:30;;;;;;;;;32.75;27.75;;;;;19.14;63.43;100878.09;5108086;27;45866;-63
2022/06/04 00:17:56;;;;;;;;;36.50;30.50;;;;;19.14;63.73;100877.22;5108789;27;45221;-64
2022/06/04 00:20:21;;;;;;;;;24.75;23.50;;;;;19.12;64.09;100877.34;5111124;27;45718;-63
2022/06/04 00:22:47;;;;;;;;;36.25;29.00;;;;;19.11;63.76;100874.78;5112019;27;45576;-63
2022/06/04 00:25:14;;;;;;;;;33.50;27.50;;;;;19.07;63.81;100871.47;5108805;27;45322;-63
2022/06/04 00:27:40;;;;;;;;;29.50;22.00;;;;;19.11;63.39;100874.78;5116885;27;45415;-63
2022/06/04 00:30:07;;;;;;;;;32.50;26.00;;;;;19.09;64.03;100874.03;5109125;27;45564;-64
2022/06/04 00:32:36;;;;;;;;;28.00;25.75;;;;;19.08;63.66;100877.63;5108710;27;47043;-64
2022/06/04 00:35:03;;;;;;;;;29.25;27.25;;;;;19.04;63.22;100884.91;5095310;27;45419;-64
2022/06/04 00:37:32;;;;;;;;;27.50;24.75;;;;;19.03;63.66;100879.69;5108410;27;45405;-64
2022/06/04 00:40:00;;;;;;;;;28.75;24.00;;;;;18.99;63.72;100880.84;5110600;27;45829;-64
2022/06/04 00:42:26;;;;;;;;;27.75;25.25;;;;;18.98;63.78;100879.97;5111751;27;45885;-64
2022/06/04 00:45:29;;;;;;;;;26.75;25.00;;;;;18.96;64.07;100880.06;5117155;27;45312;-64
2022/06/04 00:47:54;;;;;;;;;32.75;25.50;;;;;18.97;63.57;100865.00;5107481;27;45310;-64
2022/06/04 00:50:21;;;;;;;;;30.00;26.75;;;;;18.97;63.97;100859.69;5110370;27;68630;-64
2022/06/04 00:52:49;;;;;;;;;31.50;25.00;;;;;18.95;63.55;100862.44;5096284;27;46159;-64
2022/06/04 00:55:16;;;;;;;;;32.75;25.25;;;;;18.94;63.92;100857.22;5113431;27;45393;-63
2022/06/04 00:58:16;;;;;;;;;22.25;20.50;;;;;18.94;64.10;100844.81;5117367;27;66247;-63
2022/06/04 01:00:57;;;;;;;;;22.50;21.25;;;;;18.93;63.95;100842.28;5096059;27;45509;-64
2022/06/04 01:03:25;;;;;;;;;28.25;21.75;;;;;18.93;63.90;100851.06;5101671;27;46119;-64
2022/06/04 01:06:02;;;;;;;;;23.25;18.50;;;;;18.92;63.76;100845.88;5114037;27;45369;-64
2022/06/04 01:08:49;;;;;;;;;28.75;25.75;;;;;18.90;64.13;100851.25;5117905;27;45432;-64
2022/06/04 01:11:17;;;;;;;;;19.50;19.00;;;;;18.90;63.91;100845.94;5114240;27;45554;-63
2022/06/04 01:14:13;;;;;;;;;24.00;22.75;;;;;18.89;64.05;100846.03;5107069;27;46928;-64
2022/06/04 01:16:57;;;;;;;;;23.50;20.00;;;;;18.87;63.89;100835.53;5111690;27;46125;-64
2022/06/04 01:19:45;;;;;;;;;25.00;22.50;;;;;18.89;63.90;100838.09;5096781;27;45435;-63
2022/06/04 01:22:16;;;;;;;;;23.75;21.25;;;;;18.89;64.29;100838.09;5111620;27;45536;-64
2022/06/04 01:25:00;;;;;;;;;21.75;20.50;;;;;18.89;63.85;100831.00;5108334;27;46348;-63
2022/06/04 01:27:37;;;;;;;;;24.50;20.00;;;;;18.89;64.01;100816.88;5087982;27;45906;-64
2022/06/04 01:30:42;;;;;;;;;18.25;14.25;;;;;18.89;63.89;100816.88;5112644;27;45413;-64
2022/06/04 01:33:17;;;;;;;;;22.50;20.75;;;;;18.88;63.90;100816.03;5016836;28;45400;-64
2022/06/04 01:35:47;;;;;;;;;24.25;21.25;;;;;18.89;64.00;100811.56;5017812;28;47339;-64
2022/06/04 01:38:24;;;;;;;;;22.00;21.00;;;;;18.89;63.68;100811.56;5061984;27;45445;-63
2022/06/04 01:41:07;;;;;;;;;26.25;22.50;;;;;18.88;63.72;100809.88;5098724;27;45579;-64
2022/06/04 01:43:52;;;;;;;;;20.75;17.50;;;;;18.86;64.12;100811.78;5114987;27;45584;-64
2022/06/04 01:46:32;;;;;;;;;27.00;20.75;;;;;18.87;64.08;100821.41;5098675;27;47185;-64
2022/06/04 01:49:02;;;;;;;;;21.75;19.25;;;;;18.88;64.05;100823.97;5109182;27;45295;-64
2022/06/04 01:51:31;;;;;;;;;28.75;22.50;;;;;18.89;63.40;100811.56;5110307;27;45563;-64
2022/06/04 01:54:01;;;;;;;;;24.75;21.50;;;;;18.88;64.04;100816.03;5115066;27;45382;-63
2022/06/04 01:56:30;;;;;;;;;22.75;21.25;;;;;18.86;63.96;100795.88;5114011;27;45399;-64
2022/06/04 01:59:05;;;;;;;;;27.00;22.75;;;;;18.88;63.81;100802.78;5109431;27;45902;-64
2022/06/04 02:01:32;;;;;;;;;25.75;23.00;;;;;18.85;63.95;100796.78;5092020;27;45574;-64
2022/06/04 02:04:05;;;;;;;;;25.25;24.50;;;;;18.86;63.99;100812.63;5110545;27;45449;-64
2022/06/04 02:06:39;;;;;;;;;27.25;22.50;;;;;18.87;63.84;100809.00;5108288;27;45473;-64
2022/06/04 02:09:12;;;;;;;;;24.75;21.75;;;;;18.87;63.90;100806.34;5098711;27;46004;-63
2022/06/04 02:11:38;;;;;;;;;27.00;21.75;;;;;18.85;63.92;100808.25;5082474;27;45549;-63
2022/06/04 02:14:06;;;;;;;;;22.75;21.25;;;;;18.87;63.89;100809.00;5101654;27;45487;-63
2022/06/04 02:16:35;;;;;;;;;25.00;21.25;;;;;18.85;63.86;100808.25;5111464;27;45456;-64
2022/06/04 02:19:01;;;;;;;;;23.75;20.75;;;;;18.84;63.75;100811.88;5113067;27;45592;-63
2022/06/04 02:21:27;;;;;;;;;24.75;23.50;;;;;18.84;63.70;100819.81;5118980;27;45294;-63
2022/06/04 02:23:54;;;;;;;;;24.75;22.50;;;;;18.84;63.96;100816.28;5096546;27;45560;-63
2022/06/04 02:26:20;;;;;;;;;24.50;19.75;;;;;18.82;63.76;100818.19;5099567;27;45537;-63
2022/06/04 02:28:46;;;;;;;;;29.75;22.25;;;;;18.81;63.83;100819.97;5110554;27;45526;-63
2022/06/04 02:31:36;;;;;;;;;23.25;18.50;;;;;18.79;64.00;100820.06;5113743;27;45396;-63
2022/06/04 02:34:15;;;;;;;;;22.00;19.75;;;;;18.78;63.62;100807.72;5110263;27;45708;-63
2022/06/04 02:36:46;;;;;;;;;26.00;20.50;;;;;18.74;63.19;100798.25;5095556;27;45386;-63
2022/06/04 02:39:21;;;;;;;;;23.00;19.00;;;;;18.71;63.86;100785.19;5106266;27;45327;-63
2022/06/04 02:42:00;;;;;;;;;23.50;19.75;;;;;18.71;63.76;100782.53;5111628;27;45734;-63
2022/06/04 02:44:32;;;;;;;;;21.75;21.25;;;;;18.71;64.13;100785.19;5094026;27;45535;-64
2022/06/04 02:47:06;;;;;;;;;21.25;20.50;;;;;18.68;64.10;100790.69;5093589;27;46374;-63
2022/06/04 02:50:08;;;;;;;;;18.50;17.50;;;;;18.71;63.94;100797.59;5116093;27;46266;-63
2022/06/04 02:52:35;;;;;;;;;22.75;17.00;;;;;18.72;64.25;100804.63;5030250;28;45542;-63
2022/06/04 02:55:11;;;;;;;;;21.25;19.25;;;;;18.71;63.99;100794.94;5094746;27;71112;-63
2022/06/04 02:57:40;;;;;;;;;22.25;18.50;;;;;18.70;63.95;100794.09;5092119;27;46312;-63
2022/06/04 03:00:08;;;;;;;;;24.50;19.25;;;;;18.70;64.03;100794.09;5094510;27;45555;-63
2022/06/04 03:02:34;;;;;;;;;20.50;18.25;;;;;18.69;63.96;100787.06;5109101;27;45448;-63
2022/06/04 03:05:11;;;;;;;;;21.75;19.50;;;;;18.69;64.04;100775.63;5098023;27;71209;-63
2022/06/04 03:07:39;;;;;;;;;22.50;20.50;;;;;18.66;64.28;100771.38;5098608;27;46238;-63
2022/06/04 03:10:10;;;;;;;;;24.00;19.50;;;;;18.69;64.04;100773.81;5088849;27;45396;-62
2022/06/04 03:12:35;;;;;;;;;23.25;22.25;;;;;18.69;64.31;100772.97;5093800;27;45434;-63
2022/06/04 03:15:02;;;;;;;;;24.00;21.75;;;;;18.69;64.25;100768.53;5108489;27;67363;-62
2022/06/04 03:17:27;;;;;;;;;19.50;19.50;;;;;18.69;64.06;100768.53;5111127;27;46150;-62
2022/06/04 03:19:53;;;;;;;;;23.25;18.25;;;;;18.71;64.19;100776.38;5115973;27;60660;-63
2022/06/04 03:22:18;;;;;;;;;30.00;22.50;;;;;18.71;64.30;100769.28;5108264;27;45401;-63
2022/06/04 03:24:43;;;;;;;;;18.50;17.25;;;;;18.72;64.00;100759.53;5105071;27;45512;-65
2022/06/04 03:27:09;;;;;;;;;23.25;19.00;;;;;18.72;64.14;100755.09;5108673;27;72188;-63
2022/06/04 03:29:34;;;;;;;;;23.75;19.50;;;;;18.72;64.25;100757.75;5103761;27;72277;-63
2022/06/04 03:31:59;;;;;;;;;24.25;21.50;;;;;18.71;64.04;100748.06;5112350;27;63814;-62
2022/06/04 03:34:25;;;;;;;;;21.00;19.50;;;;;18.72;64.19;100748.94;5108518;27;61958;-64
2022/06/04 03:36:50;;;;;;;;;21.25;19.00;;;;;18.72;64.01;100757.75;5109757;27;75391;-63
2022/06/04 03:39:15;;;;;;;;;20.25;19.50;;;;;18.73;64.22;100747.97;5114596;27;45434;-63
2022/06/04 03:41:41;;;;;;;;;20.50;20.00;;;;;18.74;64.09;100755.84;5108553;27;45586;-63
2022/06/04 03:44:06;;;;;;;;;26.25;20.75;;;;;18.75;64.38;100754.03;5112614;27;68504;-65
2022/06/04 03:46:32;;;;;;;;;23.00;18.50;;;;;18.75;64.19;100754.03;5110659;27;45314;-63
2022/06/04 03:48:58;;;;;;;;;23.50;19.75;;;;;18.78;63.91;100762.66;5110675;27;63412;-62
2022/06/04 03:51:25;;;;;;;;;21.50;18.25;;;;;18.78;64.07;100764.47;5115075;27;45584;-63
2022/06/04 03:53:50;;;;;;;;;23.00;21.25;;;;;18.78;64.18;100764.47;5111476;27;45291;-63
2022/06/04 03:56:15;;;;;;;;;22.00;20.50;;;;;18.79;64.28;100782.94;5114462;27;74399;-63
2022/06/04 03:58:41;;;;;;;;;22.75;21.25;;;;;18.78;64.18;100786.50;5117362;27;68052;-63
2022/06/04 04:01:19;;;;;;;;;22.25;19.75;;;;;18.78;63.97;100793.63;5111809;27;45220;-64
2022/06/04 04:03:44;;;;;;;;;24.00;18.75;;;;;18.78;63.99;100796.28;5111553;27;45480;-64
2022/06/04 04:06:19;;;;;;;;;22.75;19.50;;;;;18.76;64.20;100788.41;5108342;27;46054;-63
2022/06/04 04:08:45;;;;;;;;;24.75;20.50;;;;;18.75;64.11;100789.38;5111468;27;46830;-64
2022/06/04 04:11:15;;;;;;;;;18.25;18.25;;;;;18.75;64.15;100799.09;5104083;27;65067;-64
2022/06/04 04:13:41;;;;;;;;;22.50;19.75;;;;;18.75;64.34;100815.00;5107691;27;45229;-64
2022/06/04 04:16:08;;;;;;;;;28.75;22.00;;;;;18.76;64.32;100819.38;5113491;27;45506;-63
2022/06/04 04:18:34;;;;;;;;;26.00;21.75;;;;;18.78;63.79;100822.78;5104384;27;45620;-63
2022/06/04 04:21:06;;;;;;;;;24.00;20.25;;;;;18.77;64.10;100823.75;5112524;27;45624;-63
2022/06/04 04:23:32;;;;;;;;;20.75;19.00;;;;;18.78;64.19;100828.09;5113712;27;45496;-63
2022/06/04 04:25:57;;;;;;;;;23.25;20.25;;;;;18.79;64.23;100845.72;5104404;27;46254;-63
2022/06/04 04:28:23;;;;;;;;;19.50;19.25;;;;;18.79;64.36;100866.94;5120248;27;52363;-63
2022/06/04 04:30:48;;;;;;;;;23.50;20.25;;;;;18.80;64.18;100876.56;5114767;27;66336;-63
2022/06/04 04:33:13;;;;;;;;;22.00;18.25;;;;;18.81;64.09;100872.16;5105647;27;73231;-63
2022/06/04 04:35:39;;;;;;;;;22.50;19.00;;;;;18.82;64.14;100855.31;5106772;27;47027;-63
2022/06/04 04:38:04;;;;;;;;;23.25;20.00;;;;;18.83;64.04;100851.72;5116109;27;51873;-63
2022/06/04 04:40:31;;;;;;;;;23.75;20.75;;;;;18.79;64.10;100873.06;5117067;27;45500;-64
2022/06/04 04:42:57;;;;;;;;;23.25;18.25;;;;;18.81;64.34;100886.25;5107561;27;45500;-64
2022/06/04 04:45:24;;;;;;;;;14.00;13.00;;;;;18.81;64.36;100880.94;5108436;27;46224;-65
2022/06/04 04:47:50;;;;;;;;;24.25;21.00;;;;;18.82;64.29;100872.06;5109755;27;45636;-65
2022/06/04 04:50:25;;;;;;;;;20.50;17.75;;;;;18.84;64.19;100878.16;5106882;27;45371;-65
2022/06/04 04:52:51;;;;;;;;;23.50;20.00;;;;;18.85;64.14;100895.75;5114289;27;45690;-65
2022/06/04 04:55:17;;;;;;;;;26.75;21.25;;;;;18.84;64.42;100899.38;5114994;27;45473;-65
2022/06/04 04:57:42;;;;;;;;;23.50;20.50;;;;;18.85;64.27;100889.59;5117181;27;45493;-64
2022/06/04 05:00:09;;;;;;;;;22.00;19.75;;;;;18.85;64.29;100894.91;5111609;27;45393;-64
2022/06/04 05:02:34;;;;;;;;;21.25;18.50;;;;;18.85;64.63;100879.84;5109619;27;45523;-64
2022/06/04 05:04:59;;;;;;;;;26.25;21.00;;;;;18.85;64.28;100871.88;5111916;27;64559;-64
2022/06/04 05:07:25;;;;;;;;;20.75;19.00;;;;;18.85;64.18;100882.50;5119465;27;45427;-64
2022/06/04 05:09:50;;;;;;;;;21.75;19.50;;;;;18.87;64.46;100883.25;5116533;27;45275;-63
2022/06/04 05:12:16;;;;;;;;;25.25;22.00;;;;;18.89;64.16;100876.09;5108844;27;66754;-64
2022/06/04 05:14:41;;;;;;;;;21.25;19.25;;;;;18.92;64.14;100859.13;5112007;27;69214;-63
2022/06/04 05:17:07;;;;;;;;;26.25;21.00;;;;;18.94;64.24;100863.38;5117545;27;51128;-63
2022/06/04 05:19:32;;;;;;;;;21.25;19.25;;;;;18.98;64.28;100866.69;5106140;27;69414;-64
2022/06/04 05:21:58;;;;;;;;;20.25;17.25;;;;;19.02;64.01;100870.03;5111116;27;52684;-63
2022/06/04 05:24:26;;;;;;;;;24.00;20.50;;;;;19.04;63.87;100866.34;5115645;27;75631;-63
2022/06/04 05:26:53;;;;;;;;;22.25;17.75;;;;;19.06;63.95;100869.75;5112776;27;45825;-64
2022/06/04 05:29:19;;;;;;;;;20.25;17.50;;;;;19.07;63.93;100858.22;5116949;27;45358;-64
2022/06/04 05:31:45;;;;;;;;;20.00;19.75;;;;;19.10;63.99;100835.94;5088553;27;45583;-64
2022/06/04 05:34:11;;;;;;;;;27.00;21.00;;;;;19.13;63.81;100822.47;5115357;27;50442;-63
2022/06/04 05:36:37;;;;;;;;;22.25;19.75;;;;;19.12;63.79;100808.38;5115566;27;45936;-63
2022/06/04 05:39:04;;;;;;;;;29.00;22.75;;;;;19.15;63.77;100826.72;5111768;27;45457;-63
2022/06/04 05:41:30;;;;;;;;;21.00;18.50;;;;;19.15;63.52;100831.19;5116804;27;45475;-63
2022/06/04 05:43:55;;;;;;;;;22.00;18.25;;;;;19.18;63.87;100840.78;5104268;27;45862;-63
2022/06/04 05:46:22;;;;;;;;;23.50;20.25;;;;;19.21;63.34;100845.88;5104536;27;73349;-63
2022/06/04 05:48:47;;;;;;;;;20.75;18.25;;;;;19.22;63.54;100843.13;5113284;27;45429;-63
2022/06/04 05:51:24;;;;;;;;;23.50;18.50;;;;;19.26;63.56;100852.59;5117559;27;45460;-63
2022/06/04 05:53:50;;;;;;;;;22.50;19.25;;;;;19.30;63.43;100850.63;5109843;27;45410;-63
2022/06/04 05:56:21;;;;;;;;;25.75;23.75;;;;;19.37;63.53;100862.59;5112610;27;45494;-63
2022/06/04 05:58:47;;;;;;;;;23.50;18.25;;;;;19.43;63.25;100859.53;5118227;27;45265;-63
2022/06/04 06:01:18;;;;;;;;;26.00;21.25;;;;;19.46;63.10;100864.66;5114071;27;45448;-63
2022/06/04 06:03:44;;;;;;;;;21.75;20.25;;;;;19.49;63.02;100877.72;5107801;27;46281;-63
2022/06/04 06:06:12;;;;;;;;;23.00;21.00;;;;;19.50;62.93;100881.25;5115383;27;45400;-63
2022/06/04 06:08:37;;;;;;;;;25.50;21.25;;;;;19.48;62.93;100891.13;5112192;27;45171;-63
2022/06/04 06:11:09;;;;;;;;;23.00;21.00;;;;;19.45;63.14;100910.72;5107229;27;45540;-63
2022/06/04 06:13:34;;;;;;;;;19.75;16.75;;;;;19.43;63.08;100915.28;5111274;27;45216;-63
2022/06/04 06:16:23;;;;;;;;;21.75;20.25;;;;;19.40;63.19;100911.94;5111618;27;45362;-63
2022/06/04 06:18:49;;;;;;;;;22.75;20.75;;;;;19.34;63.30;100932.59;5111068;27;45289;-63
2022/06/04 06:21:17;;;;;;;;;20.25;19.50;;;;;19.31;63.16;100911.56;5116321;27;45315;-63
2022/06/04 06:23:43;;;;;;;;;24.50;22.50;;;;;19.30;63.38;100909.88;5111691;27;46366;-63
2022/06/04 06:26:14;;;;;;;;;27.00;22.25;;;;;19.29;63.54;100947.09;5113391;27;45274;-63
2022/06/04 06:28:41;;;;;;;;;25.25;22.00;;;;;19.25;63.58;100946.44;5105997;27;45335;-63
2022/06/04 06:31:08;;;;;;;;;19.25;16.25;;;;;19.20;63.71;100961.78;5109345;27;45603;-63
2022/06/04 06:33:33;;;;;;;;;23.75;20.25;;;;;19.20;63.47;100975.03;5110889;27;45551;-64
2022/06/04 06:36:03;;;;;;;;;20.25;18.75;;;;;19.17;63.74;100972.56;5114081;27;45302;-63
2022/06/04 06:38:28;;;;;;;;;25.75;22.75;;;;;19.19;63.79;100967.16;5114274;27;45278;-63
2022/06/04 06:40:55;;;;;;;;;21.25;19.75;;;;;19.20;63.62;100961.78;5116526;27;73233;-62
2022/06/04 06:43:21;;;;;;;;;21.75;19.50;;;;;19.22;63.67;100948.41;5112834;27;47185;-63
2022/06/04 06:45:47;;;;;;;;;24.00;23.00;;;;;19.23;63.79;100966.03;5114523;27;45928;-63
2022/06/04 06:48:12;;;;;;;;;27.00;21.25;;;;;19.24;63.65;100959.78;5110852;27;45487;-63
2022/06/04 06:50:38;;;;;;;;;25.50;20.50;;;;;19.23;63.57;100951.00;5116500;27;46028;-63
2022/06/04 06:53:04;;;;;;;;;21.50;21.25;;;;;19.25;63.71;100956.22;5105273;27;46257;-63
2022/06/04 06:55:30;;;;;;;;;21.00;19.25;;;;;19.26;64.10;100977.31;5116563;27;45257;-63
2022/06/04 06:57:55;;;;;;;;;24.00;21.25;;;;;19.25;64.01;100980.94;5113699;27;51405;-63
2022/06/04 07:00:21;;;;;;;;;21.75;16.50;;;;;19.26;63.90;100955.25;5116615;27;73317;-63
2022/06/04 07:02:46;;;;;;;;;24.25;20.50;;;;;19.27;64.07;100936.59;5116545;27;45442;-63
2022/06/04 07:05:12;;;;;;;;;22.75;22.00;;;;;19.28;64.20;100932.13;5112247;27;73310;-63
2022/06/04 07:07:37;;;;;;;;;24.50;23.00;;;;;19.28;63.96;100933.00;5109644;27;63156;-63
2022/06/04 07:10:04;;;;;;;;;22.75;21.50;;;;;19.27;64.05;100910.03;5114194;27;45560;-63
2022/06/04 07:12:29;;;;;;;;;25.50;21.50;;;;;19.21;63.85;100898.94;5106232;27;46237;-63
2022/06/04 07:14:55;;;;;;;;;29.00;24.25;;;;;19.28;64.51;100911.78;5105910;27;71176;-63
2022/06/04 07:17:20;;;;;;;;;27.50;24.50;;;;;19.31;64.34;100903.59;5104077;27;66086;-63
2022/06/04 07:19:45;;;;;;;;;29.25;22.50;;;;;19.34;64.26;100910.53;5105144;27;45716;-63
2022/06/04 07:22:11;;;;;;;;;21.25;19.25;;;;;19.36;64.40;100903.31;5112497;27;46582;-63
2022/06/04 07:24:37;;;;;;;;;29.25;24.25;;;;;19.39;64.30;100891.66;5108978;27;45422;-63
2022/06/04 07:27:03;;;;;;;;;26.25;21.50;;;;;19.43;64.76;100901.16;5110158;27;45296;-63
2022/06/04 07:29:28;;;;;;;;;31.00;24.75;;;;;19.45;64.42;100921.34;5111202;27;45337;-63
2022/06/04 07:31:54;;;;;;;;;24.00;23.25;;;;;19.47;64.47;100938.00;5108729;27;46150;-63
2022/06/04 07:34:19;;;;;;;;;22.75;21.25;;;;;19.50;64.84;100937.00;5115035;27;47035;-63
2022/06/04 07:36:45;;;;;;;;;24.75;23.75;;;;;19.49;64.76;100957.34;5114729;27;69224;-63
2022/06/04 07:39:14;;;;;;;;;26.25;22.50;;;;;19.51;64.66;100971.41;5119985;27;45448;-63
2022/06/04 07:41:43;;;;;;;;;29.75;23.75;;;;;19.49;64.87;100962.66;5116108;27;47047;-63
2022/06/04 07:44:09;;;;;;;;;25.75;23.50;;;;;19.49;64.77;100943.22;5114155;27;46867;-63
2022/06/04 07:46:35;;;;;;;;;26.00;19.25;;;;;19.51;65.07;100946.63;5112148;27;45258;-63
2022/06/04 07:49:03;;;;;;;;;30.50;25.75;;;;;19.51;64.57;100944.88;5122965;27;45313;-63
2022/06/04 07:51:30;;;;;;;;;27.75;22.25;;;;;19.48;64.63;100955.66;5120569;27;46486;-63
2022/06/04 07:53:56;;;;;;;;;24.50;22.50;;;;;19.51;64.88;100976.72;5107299;27;45456;-63
2022/06/04 07:56:22;;;;;;;;;30.00;24.75;;;;;19.52;64.85;100958.97;5117849;27;45349;-63
2022/06/04 07:58:48;;;;;;;;;29.50;27.00;;;;;19.54;65.07;100955.28;5116479;27;45366;-63
2022/06/04 08:01:15;;;;;;;;;27.25;23.25;;;;;19.58;64.91;100963.06;5115257;27;46118;-63
2022/06/04 08:03:42;;;;;;;;;23.75;22.00;;;;;19.60;64.90;100971.78;5102405;27;45825;-63
2022/06/04 08:06:10;;;;;;;;;27.25;23.25;;;;;19.62;64.58;100959.25;5115824;27;45445;-63
2022/06/04 08:08:35;;;;;;;;;27.75;25.75;;;;;19.65;64.66;100951.94;5109499;27;45912;-63
2022/06/04 08:11:01;;;;;;;;;27.50;23.50;;;;;19.67;64.44;100954.53;5109913;27;46013;-62
2022/06/04 08:13:30;;;;;;;;;11.50;7.50;;;;;19.69;64.34;100931.41;5105480;27;45362;-62
2022/06/04 08:16:00;;;;;;;;;31.75;24.25;;;;;19.72;64.46;100917.91;5107439;27;45404;-63
2022/06/04 08:18:26;;;;;;;;;28.25;25.00;;;;;19.71;64.54;100922.38;5110348;27;45366;-61
2022/06/04 08:20:52;;;;;;;;;26.00;22.75;;;;;19.78;64.87;100924.66;5111292;27;66151;-63
2022/06/04 08:23:19;;;;;;;;;43.00;33.75;;;;;19.83;64.88;100927.91;5105572;27;45311;-61
2022/06/04 08:25:47;;;;;;;;;30.25;25.25;;;;;19.89;64.61;100938.16;5119408;27;45281;-62
2022/06/04 08:28:16;;;;;;;;;33.00;24.25;;;;;19.94;64.58;100937.84;5117752;27;45453;-61
2022/06/04 08:30:42;;;;;;;;;27.75;24.25;;;;;20.04;64.51;100947.81;5107076;27;46359;-61
2022/06/04 08:33:07;;;;;;;;;28.25;26.25;;;;;20.15;64.30;100964.84;5107933;27;45958;-61
2022/06/04 08:35:33;;;;;;;;;28.00;25.50;;;;;20.23;64.32;100960.75;5104086;27;63107;-61
2022/06/04 08:37:58;;;;;;;;;28.50;24.75;;;;;20.30;64.01;100959.41;5114722;27;55268;-62
2022/06/04 08:40:30;;;;;;;;;33.00;28.25;;;;;20.39;63.71;100954.47;5106259;27;74160;-62
2022/06/04 08:43:13;;;;;;;;;26.00;25.50;;;;;20.53;63.65;100967.72;5108662;27;45972;-62
2022/06/04 08:45:39;;;;;;;;;32.25;28.75;;;;;20.64;63.35;100959.06;5107013;27;45698;-62
2022/06/04 08:48:13;;;;;;;;;36.50;33.00;;;;;20.75;63.44;100966.31;5098653;27;45260;-61
2022/06/04 08:50:38;;;;;;;;;35.25;29.75;;;;;20.85;63.09;100964.78;5101556;27;46114;-63
2022/06/04 08:53:04;;;;;;;;;31.75;29.75;;;;;20.95;62.34;100965.03;5086082;27;45473;-62
2022/06/04 08:58:51;;;;;;;;;26.50;24.25;;;;;21.12;62.10;100972.69;5104998;27;45474;-63
2022/06/04 09:01:35;;;;;;;;;25.25;22.75;;;;;21.19;62.19;100981.97;5110594;27;45405;-62
2022/06/04 09:04:03;;;;;;;;;27.25;22.50;;;;;21.27;61.86;100978.81;5110665;27;45834;-62
2022/06/04 09:06:28;;;;;;;;;31.00;24.75;;;;;21.35;61.96;100981.78;5111478;27;45430;-61
2022/06/04 09:09:08;;;;;;;;;25.50;22.25;;;;;21.45;61.55;100982.00;5105970;27;45454;-60
2022/06/04 09:11:50;;;;;;;;;29.25;22.25;;;;;21.56;61.15;100992.78;5097061;27;45655;-58
2022/06/04 09:14:30;;;;;;;;;24.50;21.50;;;;;21.67;61.16;100997.38;5102602;27;45378;-58
2022/06/04 09:17:00;;;;;;;;;24.75;22.00;;;;;21.77;60.51;100994.94;5119870;27;46899;-58
2022/06/04 09:19:33;;;;;;;;;23.75;21.00;;;;;21.84;60.56;100998.03;5101494;27;45495;-58
2022/06/04 09:21:58;;;;;;;;;29.50;24.25;;;;;21.91;60.02;100994.81;5111124;27;45612;-59
2022/06/04 09:24:25;;;;;;;;;24.00;21.50;;;;;21.98;60.41;100988.09;5118390;27;45233;-58
2022/06/04 09:26:53;;;;;;;;;21.75;21.00;;;;;22.07;59.68;100981.25;5107793;27;45497;-58
2022/06/04 09:29:31;;;;;;;;;21.00;19.25;;;;;22.16;59.53;100977.91;5104253;27;47140;-59
2022/06/04 09:32:10;;;;;;;;;20.75;18.25;;;;;22.28;60.01;100988.72;5107047;27;46282;-58
2022/06/04 09:34:38;;;;;;;;;25.00;21.75;;;;;22.42;59.58;100988.56;5091361;27;45521;-59
2022/06/04 09:37:06;;;;;;;;;23.75;21.25;;;;;22.59;59.43;100978.44;5112846;27;45429;-59
2022/06/04 09:39:33;;;;;;;;;22.75;20.25;;;;;23.01;59.00;100981.56;5113169;27;45236;-60
2022/06/04 09:42:18;;;;;;;;;19.50;13.75;;;;;23.59;58.21;100977.09;5104594;27;46325;-60
2022/06/04 09:44:56;;;;;;;;;14.00;14.00;;;;;24.66;56.33;100968.66;5108111;27;45781;-62
2022/06/04 09:47:29;;;;;;;;;20.25;16.50;;;;;26.05;54.78;100976.47;5111242;27;45614;-61
2022/06/04 09:49:57;;;;;;;;;20.25;17.25;;;;;27.50;53.27;100968.63;5087250;27;45446;-63
2022/06/04 09:52:37;;;;;;;;;19.25;15.50;;;;;28.99;49.83;100975.56;5099037;27;46323;-61
2022/06/04 09:55:16;;;;;;;;;14.75;13.25;;;;;30.21;47.41;100971.09;5108333;27;45290;-60
2022/06/04 09:57:42;;;;;;;;;16.75;15.00;;;;;31.30;45.68;100974.56;5102604;27;45489;-62
2022/06/04 10:00:22;;;;;;;;;17.50;14.50;;;;;32.42;44.75;100971.81;5115402;27;46905;-59
2022/06/04 10:03:09;;;;;;;;;16.25;14.00;;;;;33.42;41.96;100974.41;5109922;27;45398;-62
2022/06/04 10:05:35;;;;;;;;;15.75;13.50;;;;;34.35;38.87;100974.84;5109608;27;45698;-61
2022/06/04 10:08:10;;;;;;;;;14.75;14.00;;;;;35.34;37.84;100982.25;5114484;27;69527;-61
2022/06/04 10:10:42;;;;;;;;;10.75;9.75;;;;;36.26;35.83;100979.38;5105520;27;45410;-60
2022/06/04 10:16:00;;;;;;;;;8.50;8.25;;;;;37.70;32.76;100975.25;5099579;27;45161;-60
2022/06/04 10:18:29;;;;;;;;;11.00;9.50;;;;;38.38;32.58;100982.06;5109599;27;45840;-61
2022/06/04 10:20:58;;;;;;;;;10.00;8.50;;;;;38.91;30.20;100984.44;5113812;27;45382;-60
2022/06/04 10:23:24;;;;;;;;;11.25;9.75;;;;;39.38;30.67;100977.72;5105435;27;46071;-60
2022/06/04 10:26:18;;;;;;;;;8.75;6.50;;;;;39.73;29.45;100968.94;5116144;27;45394;-60
2022/06/04 10:29:29;;;;;;;;;8.50;8.50;;;;;40.30;29.80;100966.69;5078136;27;45476;-60
2022/06/04 10:31:58;;;;;;;;;8.75;8.00;;;;;40.53;28.22;100959.63;5102635;27;45332;-60
2022/06/04 10:34:33;;;;;;;;;10.25;10.25;;;;;40.85;27.75;100953.88;5109446;27;46141;-60
2022/06/04 10:37:17;;;;;;;;;8.00;7.25;;;;;41.11;27.97;100966.28;5101960;27;45334;-60
2022/06/04 10:40:02;;;;;;;;;9.50;8.50;;;;;41.31;26.19;100960.44;5113277;27;45494;-59
2022/06/04 10:42:35;;;;;;;;;10.00;9.50;;;;;41.79;27.58;100963.94;5104464;27;45485;-59
2022/06/04 10:45:15;;;;;;;;;10.50;9.25;;;;;42.03;24.07;100954.53;5102824;27;45442;-59
2022/06/04 10:47:55;;;;;;;;;11.00;9.75;;;;;42.37;25.41;100954.63;5104577;27;45158;-61
2022/06/04 10:51:25;;;;;;;;;8.50;8.50;;;;;42.70;25.70;100960.44;5107882;27;45374;-59
2022/06/04 10:53:53;;;;;;;;;6.75;6.75;;;;;42.96;24.24;100956.16;5096689;27;45497;-60
2022/06/04 10:56:23;;;;;;;;;8.25;8.00;;;;;43.24;23.69;100955.19;5093081;27;46126;-60
2022/06/04 10:59:00;;;;;;;;;9.00;8.75;;;;;43.50;23.06;100950.06;5090017;27;45597;-59
2022/06/04 11:01:50;;;;;;;;;10.25;8.50;;;;;43.74;23.16;100946.00;5090155;27;45434;-60
2022/06/04 11:04:41;;;;;;;;;10.25;9.00;;;;;43.95;23.28;100943.44;5089378;27;45564;-56
2022/06/04 11:07:19;;;;;;;;;10.50;10.25;;;;;44.05;22.13;100946.31;5102738;27;46143;-56
2022/06/04 11:09:45;;;;;;;;;9.00;8.25;;;;;44.12;21.99;100941.41;5108338;27;45307;-55
2022/06/04 11:12:23;;;;;;;;;12.50;9.00;;;;;44.30;21.95;100934.69;5093596;27;69339;-55
2022/06/04 11:14:53;;;;;;;;;7.50;7.50;;;;;44.62;22.13;100938.59;5097858;27;45344;-55
2022/06/04 11:17:29;;;;;;;;;11.25;11.25;;;;;44.94;21.56;100940.50;5087417;27;45376;-56
2022/06/04 11:20:03;;;;;;;;;11.50;10.75;;;;;45.14;21.63;100935.09;5114318;27;45442;-55
2022/06/04 11:22:35;;;;;;;;;11.00;10.25;;;;;45.11;20.76;100928.16;5090716;27;46020;-56
2022/06/04 11:25:24;;;;;;;;;15.00;11.75;;;;;45.10;20.61;100922.88;5092631;27;45232;-57
2022/06/04 11:27:58;;;;;;;;;14.75;11.00;;;;;45.29;20.44;100923.25;5097845;27;46927;-57
2022/06/04 11:31:07;;;;;;;;;10.00;10.00;;;;;45.43;20.47;100926.41;5093846;27;45875;-57
2022/06/04 11:33:57;;;;;;;;;9.00;7.75;;;;;45.56;20.00;100925.06;5060794;27;45496;-57
2022/06/04 11:36:26;;;;;;;;;17.75;12.50;;;;;45.61;19.15;100922.31;5105222;27;45213;-61